sensor_id;sensor_type;location;lat;lon;timestamp;P1;durP1;ratioP1;P2;durP2;ratioP2
28353;SDS011;15603;50.878;8.036;2022-09-09T00:00:32;5.10;;;1.80;;
28353;SDS011;15603;50.878;8.036;2022-09-09T00:03:16;2.47;;;1.48;;
28353;SDS011;15603;50.878;8.036;2022-09-09T00:05:52;8.93;;;1.90;;
28353;SDS011;15603;50.878;8.036;2022-09-09T00:08:33;4.93;;;1.40;;
28353;SDS011;15603;50.878;8.036;2022-09-09T00:11:12;4.28;;;1.92;;
28353;SDS011;15603;50.878;8.036;2022-09-09T00:13:46;10.23;;;3.03;;
28353;SDS011;15603;50.878;8.036;2022-09-09T00:18:58;4.95;;;1.67;;
28353;SDS011;15603;50.878;8.036;2022-09-09T00:21:32;12.05;;;1.70;;
28353;SDS011;15603;50.878;8.036;2022-09-09T00:24:25;3.20;;;1.48;;
28353;SDS011;15603;50.878;8.036;2022-09-09T00:26:56;6.13;;;2.10;;
28353;SDS011;15603;50.878;8.036;2022-09-09T00:29:35;5.78;;;1.92;;
28353;SDS011;15603;50.878;8.036;2022-09-09T00:32:13;13.10;;;1.95;;
28353;SDS011;15603;50.878;8.036;2022-09-09T00:34:48;8.93;;;2.03;;
28353;SDS011;15603;50.878;8.036;2022-09-09T00:37:18;7.85;;;2.10;;
28353;SDS011;15603;50.878;8.036;2022-09-09T00:39:47;10.95;;;2.20;;
28353;SDS011;15603;50.878;8.036;2022-09-09T00:42:20;7.88;;;2.30;;
28353;SDS011;15603;50.878;8.036;2022-09-09T00:45:02;14.02;;;2.55;;
28353;SDS011;15603;50.878;8.036;2022-09-09T00:47:53;11.15;;;2.85;;
28353;SDS011;15603;50.878;8.036;2022-09-09T00:50:27;6.25;;;2.00;;
28353;SDS011;15603;50.878;8.036;2022-09-09T00:58:34;5.32;;;1.60;;
28353;SDS011;15603;50.878;8.036;2022-09-09T01:01:03;3.40;;;1.45;;
28353;SDS011;15603;50.878;8.036;2022-09-09T01:03:36;2.67;;;1.48;;
28353;SDS011;15603;50.878;8.036;2022-09-09T01:06:22;8.27;;;1.63;;
28353;SDS011;15603;50.878;8.036;2022-09-09T01:17:08;9.50;;;3.20;;
28353;SDS011;15603;50.878;8.036;2022-09-09T01:25:05;13.65;;;3.40;;
28353;SDS011;15603;50.878;8.036;2022-09-09T01:27:58;15.60;;;3.67;;
28353;SDS011;15603;50.878;8.036;2022-09-09T01:30:37;15.63;;;3.38;;
28353;SDS011;15603;50.878;8.036;2022-09-09T01:33:12;20.00;;;3.67;;
28353;SDS011;15603;50.878;8.036;2022-09-09T01:35:44;8.23;;;2.67;;
28353;SDS011;15603;50.878;8.036;2022-09-09T01:38:16;14.13;;;3.38;;
28353;SDS011;15603;50.878;8.036;2022-09-09T01:40:46;15.70;;;3.63;;
28353;SDS011;15603;50.878;8.036;2022-09-09T01:43:14;18.90;;;3.05;;
28353;SDS011;15603;50.878;8.036;2022-09-09T01:45:41;16.95;;;2.97;;
28353;SDS011;15603;50.878;8.036;2022-09-09T01:48:10;11.50;;;2.78;;
28353;SDS011;15603;50.878;8.036;2022-09-09T01:50:46;14.30;;;2.50;;
28353;SDS011;15603;50.878;8.036;2022-09-09T01:53:14;11.90;;;3.03;;
28353;SDS011;15603;50.878;8.036;2022-09-09T01:56:34;13.60;;;2.90;;
28353;SDS011;15603;50.878;8.036;2022-09-09T01:58:54;14.45;;;3.00;;
28353;SDS011;15603;50.878;8.036;2022-09-09T02:01:40;13.05;;;2.95;;
28353;SDS011;15603;50.878;8.036;2022-09-09T02:04:18;11.57;;;2.45;;
28353;SDS011;15603;50.878;8.036;2022-09-09T02:06:55;18.15;;;3.30;;
28353;SDS011;15603;50.878;8.036;2022-09-09T02:09:28;6.05;;;1.98;;
28353;SDS011;15603;50.878;8.036;2022-09-09T02:12:00;14.32;;;2.72;;
28353;SDS011;15603;50.878;8.036;2022-09-09T02:14:59;6.47;;;2.35;;
28353;SDS011;15603;50.878;8.036;2022-09-09T02:17:38;9.18;;;3.00;;
28353;SDS011;15603;50.878;8.036;2022-09-09T02:20:13;10.80;;;2.70;;
28353;SDS011;15603;50.878;8.036;2022-09-09T02:22:51;5.03;;;1.88;;
28353;SDS011;15603;50.878;8.036;2022-09-09T02:25:22;12.95;;;2.60;;
28353;SDS011;15603;50.878;8.036;2022-09-09T02:27:56;5.97;;;2.00;;
28353;SDS011;15603;50.878;8.036;2022-09-09T02:30:28;11.75;;;3.17;;
28353;SDS011;15603;50.878;8.036;2022-09-09T02:32:59;15.27;;;3.67;;
28353;SDS011;15603;50.878;8.036;2022-09-09T02:35:41;13.95;;;4.22;;
28353;SDS011;15603;50.878;8.036;2022-09-09T02:38:12;9.68;;;2.88;;
28353;SDS011;15603;50.878;8.036;2022-09-09T02:40:50;29.52;;;4.65;;
28353;SDS011;15603;50.878;8.036;2022-09-09T02:43:17;26.90;;;6.38;;
28353;SDS011;15603;50.878;8.036;2022-09-09T02:45:48;31.27;;;7.05;;
28353;SDS011;15603;50.878;8.036;2022-09-09T02:48:45;11.55;;;4.15;;
28353;SDS011;15603;50.878;8.036;2022-09-09T02:52:06;16.02;;;4.63;;
28353;SDS011;15603;50.878;8.036;2022-09-09T02:54:20;19.02;;;5.25;;
28353;SDS011;15603;50.878;8.036;2022-09-09T02:57:07;14.88;;;4.35;;
28353;SDS011;15603;50.878;8.036;2022-09-09T02:59:39;14.18;;;3.28;;
28353;SDS011;15603;50.878;8.036;2022-09-09T03:02:08;8.63;;;2.65;;
28353;SDS011;15603;50.878;8.036;2022-09-09T03:04:37;9.95;;;3.72;;
28353;SDS011;15603;50.878;8.036;2022-09-09T03:07:06;17.23;;;4.05;;
28353;SDS011;15603;50.878;8.036;2022-09-09T03:09:34;11.50;;;3.28;;
28353;SDS011;15603;50.878;8.036;2022-09-09T03:12:02;12.63;;;3.83;;
28353;SDS011;15603;50.878;8.036;2022-09-09T03:14:32;9.15;;;4.15;;
28353;SDS011;15603;50.878;8.036;2022-09-09T03:16:59;10.20;;;4.28;;
28353;SDS011;15603;50.878;8.036;2022-09-09T03:19:33;9.80;;;3.42;;
28353;SDS011;15603;50.878;8.036;2022-09-09T03:22:02;7.45;;;3.25;;
28353;SDS011;15603;50.878;8.036;2022-09-09T03:24:34;11.32;;;3.92;;
28353;SDS011;15603;50.878;8.036;2022-09-09T03:27:03;14.25;;;3.45;;
28353;SDS011;15603;50.878;8.036;2022-09-09T03:29:30;11.82;;;2.80;;
28353;SDS011;15603;50.878;8.036;2022-09-09T03:32:00;14.98;;;3.67;;
28353;SDS011;15603;50.878;8.036;2022-09-09T03:34:28;14.38;;;3.60;;
28353;SDS011;15603;50.878;8.036;2022-09-09T03:36:57;11.48;;;3.92;;
28353;SDS011;15603;50.878;8.036;2022-09-09T03:39:26;10.88;;;3.17;;
28353;SDS011;15603;50.878;8.036;2022-09-09T03:41:53;24.77;;;4.18;;
28353;SDS011;15603;50.878;8.036;2022-09-09T03:44:21;12.23;;;3.78;;
28353;SDS011;15603;50.878;8.036;2022-09-09T03:46:48;14.05;;;3.95;;
28353;SDS011;15603;50.878;8.036;2022-09-09T03:49:15;10.93;;;3.47;;
28353;SDS011;15603;50.878;8.036;2022-09-09T03:51:43;13.35;;;3.60;;
28353;SDS011;15603;50.878;8.036;2022-09-09T03:54:13;10.57;;;3.13;;
28353;SDS011;15603;50.878;8.036;2022-09-09T03:56:40;7.55;;;2.35;;
28353;SDS011;15603;50.878;8.036;2022-09-09T03:59:11;9.73;;;3.50;;
28353;SDS011;15603;50.878;8.036;2022-09-09T04:01:38;8.63;;;2.92;;
28353;SDS011;15603;50.878;8.036;2022-09-09T04:04:06;11.75;;;3.00;;
28353;SDS011;15603;50.878;8.036;2022-09-09T04:06:33;8.23;;;2.88;;
28353;SDS011;15603;50.878;8.036;2022-09-09T04:09:01;9.88;;;3.35;;
28353;SDS011;15603;50.878;8.036;2022-09-09T04:11:30;7.15;;;2.97;;
28353;SDS011;15603;50.878;8.036;2022-09-09T04:13:59;7.50;;;3.30;;
28353;SDS011;15603;50.878;8.036;2022-09-09T04:16:27;5.50;;;2.60;;
28353;SDS011;15603;50.878;8.036;2022-09-09T04:18:54;16.70;;;3.42;;
28353;SDS011;15603;50.878;8.036;2022-09-09T04:21:22;8.85;;;3.03;;
28353;SDS011;15603;50.878;8.036;2022-09-09T04:23:49;11.57;;;2.95;;
28353;SDS011;15603;50.878;8.036;2022-09-09T04:26:18;8.02;;;2.60;;
28353;SDS011;15603;50.878;8.036;2022-09-09T04:28:46;9.70;;;2.20;;
28353;SDS011;15603;50.878;8.036;2022-09-09T04:31:18;8.93;;;2.58;;
28353;SDS011;15603;50.878;8.036;2022-09-09T04:33:52;7.72;;;2.55;;
28353;SDS011;15603;50.878;8.036;2022-09-09T04:36:20;11.80;;;1.73;;
28353;SDS011;15603;50.878;8.036;2022-09-09T04:38:49;8.77;;;2.30;;
28353;SDS011;15603;50.878;8.036;2022-09-09T04:41:17;8.80;;;1.35;;
28353;SDS011;15603;50.878;8.036;2022-09-09T04:43:47;6.85;;;1.55;;
28353;SDS011;15603;50.878;8.036;2022-09-09T04:46:15;9.15;;;1.40;;
28353;SDS011;15603;50.878;8.036;2022-09-09T04:48:44;4.95;;;1.80;;
28353;SDS011;15603;50.878;8.036;2022-09-09T04:51:12;14.88;;;3.97;;
28353;SDS011;15603;50.878;8.036;2022-09-09T04:53:42;10.45;;;3.08;;
28353;SDS011;15603;50.878;8.036;2022-09-09T04:56:11;14.80;;;3.88;;
28353;SDS011;15603;50.878;8.036;2022-09-09T04:58:44;13.13;;;4.03;;
28353;SDS011;15603;50.878;8.036;2022-09-09T05:01:15;19.98;;;4.75;;
28353;SDS011;15603;50.878;8.036;2022-09-09T05:03:47;15.15;;;4.47;;
28353;SDS011;15603;50.878;8.036;2022-09-09T05:06:19;17.75;;;4.75;;
28353;SDS011;15603;50.878;8.036;2022-09-09T05:08:50;14.85;;;4.40;;
28353;SDS011;15603;50.878;8.036;2022-09-09T05:11:22;10.82;;;3.47;;
28353;SDS011;15603;50.878;8.036;2022-09-09T05:13:53;13.13;;;3.50;;
28353;SDS011;15603;50.878;8.036;2022-09-09T05:16:20;11.18;;;3.28;;
28353;SDS011;15603;50.878;8.036;2022-09-09T05:18:48;13.57;;;2.47;;
28353;SDS011;15603;50.878;8.036;2022-09-09T05:21:18;9.68;;;2.42;;
28353;SDS011;15603;50.878;8.036;2022-09-09T05:23:46;10.50;;;2.53;;
28353;SDS011;15603;50.878;8.036;2022-09-09T05:26:15;7.95;;;2.05;;
28353;SDS011;15603;50.878;8.036;2022-09-09T05:28:46;9.93;;;2.33;;
28353;SDS011;15603;50.878;8.036;2022-09-09T05:31:15;10.57;;;2.50;;
28353;SDS011;15603;50.878;8.036;2022-09-09T05:33:46;10.83;;;2.53;;
28353;SDS011;15603;50.878;8.036;2022-09-09T05:36:16;5.35;;;1.50;;
28353;SDS011;15603;50.878;8.036;2022-09-09T05:38:47;3.72;;;1.10;;
28353;SDS011;15603;50.878;8.036;2022-09-09T05:41:14;8.15;;;1.77;;
28353;SDS011;15603;50.878;8.036;2022-09-09T05:43:45;4.97;;;1.58;;
28353;SDS011;15603;50.878;8.036;2022-09-09T05:46:15;4.13;;;1.15;;
28353;SDS011;15603;50.878;8.036;2022-09-09T05:48:46;7.90;;;1.35;;
28353;SDS011;15603;50.878;8.036;2022-09-09T05:51:15;5.10;;;1.23;;
28353;SDS011;15603;50.878;8.036;2022-09-09T05:53:45;4.43;;;0.88;;
28353;SDS011;15603;50.878;8.036;2022-09-09T05:56:20;3.25;;;0.70;;
28353;SDS011;15603;50.878;8.036;2022-09-09T05:58:49;3.40;;;0.90;;
28353;SDS011;15603;50.878;8.036;2022-09-09T06:01:25;7.20;;;0.90;;
28353;SDS011;15603;50.878;8.036;2022-09-09T06:03:53;7.03;;;1.80;;
28353;SDS011;15603;50.878;8.036;2022-09-09T06:06:23;6.30;;;1.25;;
28353;SDS011;15603;50.878;8.036;2022-09-09T06:08:55;7.50;;;1.05;;
28353;SDS011;15603;50.878;8.036;2022-09-09T06:11:33;3.70;;;0.70;;
28353;SDS011;15603;50.878;8.036;2022-09-09T06:14:02;8.73;;;1.10;;
28353;SDS011;15603;50.878;8.036;2022-09-09T06:16:31;3.53;;;0.70;;
28353;SDS011;15603;50.878;8.036;2022-09-09T06:18:59;7.07;;;1.08;;
28353;SDS011;15603;50.878;8.036;2022-09-09T06:21:29;2.90;;;0.63;;
28353;SDS011;15603;50.878;8.036;2022-09-09T06:23:59;5.90;;;1.20;;
28353;SDS011;15603;50.878;8.036;2022-09-09T06:26:29;5.35;;;1.27;;
28353;SDS011;15603;50.878;8.036;2022-09-09T06:28:58;6.68;;;1.10;;
28353;SDS011;15603;50.878;8.036;2022-09-09T06:31:27;3.35;;;1.00;;
28353;SDS011;15603;50.878;8.036;2022-09-09T06:34:01;7.32;;;1.48;;
28353;SDS011;15603;50.878;8.036;2022-09-09T06:36:30;14.65;;;1.67;;
28353;SDS011;15603;50.878;8.036;2022-09-09T06:38:59;7.82;;;1.20;;
28353;SDS011;15603;50.878;8.036;2022-09-09T06:41:29;6.43;;;0.90;;
28353;SDS011;15603;50.878;8.036;2022-09-09T06:44:01;12.23;;;1.58;;
28353;SDS011;15603;50.878;8.036;2022-09-09T06:46:34;3.85;;;0.88;;
28353;SDS011;15603;50.878;8.036;2022-09-09T06:49:02;2.45;;;0.90;;
28353;SDS011;15603;50.878;8.036;2022-09-09T06:51:31;6.97;;;1.10;;
28353;SDS011;15603;50.878;8.036;2022-09-09T06:54:02;5.78;;;1.00;;
28353;SDS011;15603;50.878;8.036;2022-09-09T06:56:38;7.03;;;1.35;;
28353;SDS011;15603;50.878;8.036;2022-09-09T06:59:14;8.20;;;0.80;;
28353;SDS011;15603;50.878;8.036;2022-09-09T07:01:42;10.32;;;1.70;;
28353;SDS011;15603;50.878;8.036;2022-09-09T07:04:22;7.38;;;0.60;;
28353;SDS011;15603;50.878;8.036;2022-09-09T07:06:49;5.97;;;0.85;;
28353;SDS011;15603;50.878;8.036;2022-09-09T07:09:21;4.73;;;0.57;;
28353;SDS011;15603;50.878;8.036;2022-09-09T07:11:51;24.02;;;5.70;;
28353;SDS011;15603;50.878;8.036;2022-09-09T07:14:21;10.35;;;1.33;;
28353;SDS011;15603;50.878;8.036;2022-09-09T07:16:54;6.00;;;1.02;;
28353;SDS011;15603;50.878;8.036;2022-09-09T07:19:26;8.73;;;1.30;;
28353;SDS011;15603;50.878;8.036;2022-09-09T07:21:54;8.55;;;1.10;;
28353;SDS011;15603;50.878;8.036;2022-09-09T07:24:23;10.45;;;1.42;;
28353;SDS011;15603;50.878;8.036;2022-09-09T07:26:51;7.68;;;1.23;;
28353;SDS011;15603;50.878;8.036;2022-09-09T07:29:19;11.68;;;1.13;;
28353;SDS011;15603;50.878;8.036;2022-09-09T07:31:48;7.70;;;1.98;;
28353;SDS011;15603;50.878;8.036;2022-09-09T07:34:21;11.88;;;1.15;;
28353;SDS011;15603;50.878;8.036;2022-09-09T07:36:48;5.20;;;0.80;;
28353;SDS011;15603;50.878;8.036;2022-09-09T07:39:16;4.35;;;0.65;;
28353;SDS011;15603;50.878;8.036;2022-09-09T07:41:48;5.45;;;1.10;;
28353;SDS011;15603;50.878;8.036;2022-09-09T07:44:19;5.70;;;0.60;;
28353;SDS011;15603;50.878;8.036;2022-09-09T07:46:54;6.75;;;1.05;;
28353;SDS011;15603;50.878;8.036;2022-09-09T07:49:26;7.90;;;1.95;;
28353;SDS011;15603;50.878;8.036;2022-09-09T07:51:59;6.40;;;0.82;;
28353;SDS011;15603;50.878;8.036;2022-09-09T07:54:27;5.97;;;0.82;;
28353;SDS011;15603;50.878;8.036;2022-09-09T07:56:54;9.73;;;1.30;;
28353;SDS011;15603;50.878;8.036;2022-09-09T07:59:25;11.15;;;0.85;;
28353;SDS011;15603;50.878;8.036;2022-09-09T08:01:53;7.22;;;1.20;;
28353;SDS011;15603;50.878;8.036;2022-09-09T08:04:24;9.13;;;0.80;;
28353;SDS011;15603;50.878;8.036;2022-09-09T08:06:54;5.38;;;0.85;;
28353;SDS011;15603;50.878;8.036;2022-09-09T08:09:28;11.73;;;1.20;;
28353;SDS011;15603;50.878;8.036;2022-09-09T08:12:05;10.55;;;1.23;;
28353;SDS011;15603;50.878;8.036;2022-09-09T08:14:34;3.40;;;0.80;;
28353;SDS011;15603;50.878;8.036;2022-09-09T08:17:01;3.50;;;1.27;;
28353;SDS011;15603;50.878;8.036;2022-09-09T08:19:31;2.67;;;0.60;;
28353;SDS011;15603;50.878;8.036;2022-09-09T08:22:01;2.67;;;0.47;;
28353;SDS011;15603;50.878;8.036;2022-09-09T08:24:31;6.63;;;0.90;;
28353;SDS011;15603;50.878;8.036;2022-09-09T08:26:58;7.00;;;0.60;;
28353;SDS011;15603;50.878;8.036;2022-09-09T08:29:27;5.22;;;0.75;;
28353;SDS011;15603;50.878;8.036;2022-09-09T08:31:56;6.30;;;0.65;;
28353;SDS011;15603;50.878;8.036;2022-09-09T08:34:27;7.30;;;0.77;;
28353;SDS011;15603;50.878;8.036;2022-09-09T08:36:56;6.70;;;1.20;;
28353;SDS011;15603;50.878;8.036;2022-09-09T08:39:30;11.68;;;3.00;;
28353;SDS011;15603;50.878;8.036;2022-09-09T08:58:12;6.53;;;0.88;;
28353;SDS011;15603;50.878;8.036;2022-09-09T09:00:47;7.32;;;0.82;;
28353;SDS011;15603;50.878;8.036;2022-09-09T09:06:24;4.43;;;0.40;;
28353;SDS011;15603;50.878;8.036;2022-09-09T09:11:58;3.85;;;0.60;;
28353;SDS011;15603;50.878;8.036;2022-09-09T09:14:33;6.10;;;0.77;;
28353;SDS011;15603;50.878;8.036;2022-09-09T09:17:05;4.65;;;0.80;;
28353;SDS011;15603;50.878;8.036;2022-09-09T09:19:38;9.30;;;1.15;;
28353;SDS011;15603;50.878;8.036;2022-09-09T09:22:30;5.60;;;0.75;;
28353;SDS011;15603;50.878;8.036;2022-09-09T09:25:11;6.55;;;1.30;;
28353;SDS011;15603;50.878;8.036;2022-09-09T09:30:58;8.23;;;0.77;;
28353;SDS011;15603;50.878;8.036;2022-09-09T09:36:02;5.45;;;0.70;;
28353;SDS011;15603;50.878;8.036;2022-09-09T09:38:30;6.65;;;1.17;;
28353;SDS011;15603;50.878;8.036;2022-09-09T09:41:17;5.60;;;0.50;;
28353;SDS011;15603;50.878;8.036;2022-09-09T09:43:59;3.85;;;0.75;;
28353;SDS011;15603;50.878;8.036;2022-09-09T09:46:28;6.75;;;0.93;;
28353;SDS011;15603;50.878;8.036;2022-09-09T09:49:05;3.25;;;0.57;;
28353;SDS011;15603;50.878;8.036;2022-09-09T09:51:37;4.22;;;0.50;;
28353;SDS011;15603;50.878;8.036;2022-09-09T09:54:27;3.85;;;0.75;;
28353;SDS011;15603;50.878;8.036;2022-09-09T09:57:09;3.85;;;0.85;;
28353;SDS011;15603;50.878;8.036;2022-09-09T09:59:40;3.22;;;0.60;;
28353;SDS011;15603;50.878;8.036;2022-09-09T10:04:48;2.08;;;0.35;;
28353;SDS011;15603;50.878;8.036;2022-09-09T10:07:19;7.93;;;0.60;;
28353;SDS011;15603;50.878;8.036;2022-09-09T10:09:50;7.82;;;1.45;;
28353;SDS011;15603;50.878;8.036;2022-09-09T10:26:40;5.15;;;0.57;;
28353;SDS011;15603;50.878;8.036;2022-09-09T10:34:26;3.83;;;0.30;;
28353;SDS011;15603;50.878;8.036;2022-09-09T10:37:06;4.07;;;1.08;;
28353;SDS011;15603;50.878;8.036;2022-09-09T10:39:43;1.80;;;0.38;;
28353;SDS011;15603;50.878;8.036;2022-09-09T10:42:14;4.80;;;0.60;;
28353;SDS011;15603;50.878;8.036;2022-09-09T10:47:22;3.83;;;1.33;;
28353;SDS011;15603;50.878;8.036;2022-09-09T10:55:28;9.32;;;2.05;;
28353;SDS011;15603;50.878;8.036;2022-09-09T10:58:04;6.65;;;1.00;;
28353;SDS011;15603;50.878;8.036;2022-09-09T11:00:38;3.42;;;0.70;;
28353;SDS011;15603;50.878;8.036;2022-09-09T11:03:09;1.63;;;0.30;;
28353;SDS011;15603;50.878;8.036;2022-09-09T11:05:47;6.32;;;0.50;;
28353;SDS011;15603;50.878;8.036;2022-09-09T11:08:20;3.85;;;0.75;;
28353;SDS011;15603;50.878;8.036;2022-09-09T11:13:23;3.97;;;0.60;;
28353;SDS011;15603;50.878;8.036;2022-09-09T11:15:59;8.82;;;0.82;;
28353;SDS011;15603;50.878;8.036;2022-09-09T11:18:31;4.82;;;0.60;;
28353;SDS011;15603;50.878;8.036;2022-09-09T11:21:08;3.83;;;0.50;;
28353;SDS011;15603;50.878;8.036;2022-09-09T11:24:01;5.47;;;0.77;;
28353;SDS011;15603;50.878;8.036;2022-09-09T11:26:32;5.85;;;0.85;;
28353;SDS011;15603;50.878;8.036;2022-09-09T11:29:14;7.82;;;0.73;;
28353;SDS011;15603;50.878;8.036;2022-09-09T11:35:07;4.95;;;0.77;;
28353;SDS011;15603;50.878;8.036;2022-09-09T11:40:38;5.25;;;0.45;;
28353;SDS011;15603;50.878;8.036;2022-09-09T11:43:13;3.33;;;0.43;;
28353;SDS011;15603;50.878;8.036;2022-09-09T11:45:50;2.90;;;0.50;;
28353;SDS011;15603;50.878;8.036;2022-09-09T11:48:34;5.03;;;0.70;;
28353;SDS011;15603;50.878;8.036;2022-09-09T11:53:56;3.00;;;0.73;;
28353;SDS011;15603;50.878;8.036;2022-09-09T11:56:42;3.55;;;0.50;;
28353;SDS011;15603;50.878;8.036;2022-09-09T11:59:21;5.70;;;0.50;;
28353;SDS011;15603;50.878;8.036;2022-09-09T12:01:55;2.70;;;0.30;;
28353;SDS011;15603;50.878;8.036;2022-09-09T12:06:58;2.72;;;0.50;;
28353;SDS011;15603;50.878;8.036;2022-09-09T12:09:33;3.25;;;0.40;;
28353;SDS011;15603;50.878;8.036;2022-09-09T12:12:16;6.03;;;0.40;;
28353;SDS011;15603;50.878;8.036;2022-09-09T12:14:59;3.55;;;0.70;;
28353;SDS011;15603;50.878;8.036;2022-09-09T12:17:30;4.00;;;0.50;;
28353;SDS011;15603;50.878;8.036;2022-09-09T12:20:00;5.78;;;1.15;;
28353;SDS011;15603;50.878;8.036;2022-09-09T12:28:08;5.43;;;1.13;;
28353;SDS011;15603;50.878;8.036;2022-09-09T12:30:48;2.92;;;0.50;;
28353;SDS011;15603;50.878;8.036;2022-09-09T12:33:23;2.30;;;0.35;;
28353;SDS011;15603;50.878;8.036;2022-09-09T12:35:57;7.28;;;0.80;;
28353;SDS011;15603;50.878;8.036;2022-09-09T12:38:32;3.22;;;0.50;;
28353;SDS011;15603;50.878;8.036;2022-09-09T12:41:01;1.77;;;0.40;;
28353;SDS011;15603;50.878;8.036;2022-09-09T12:43:28;2.65;;;0.70;;
28353;SDS011;15603;50.878;8.036;2022-09-09T12:46:03;1.45;;;0.35;;
28353;SDS011;15603;50.878;8.036;2022-09-09T12:48:36;5.15;;;0.40;;
28353;SDS011;15603;50.878;8.036;2022-09-09T12:51:19;1.60;;;0.30;;
28353;SDS011;15603;50.878;8.036;2022-09-09T12:53:51;2.90;;;0.40;;
28353;SDS011;15603;50.878;8.036;2022-09-09T12:56:20;3.70;;;0.50;;
28353;SDS011;15603;50.878;8.036;2022-09-09T12:58:50;6.45;;;0.73;;
28353;SDS011;15603;50.878;8.036;2022-09-09T13:01:23;4.63;;;0.60;;
28353;SDS011;15603;50.878;8.036;2022-09-09T13:03:52;5.75;;;0.63;;
28353;SDS011;15603;50.878;8.036;2022-09-09T13:06:26;2.80;;;0.35;;
28353;SDS011;15603;50.878;8.036;2022-09-09T13:08:59;3.20;;;0.38;;
28353;SDS011;15603;50.878;8.036;2022-09-09T13:13:58;2.85;;;0.70;;
28353;SDS011;15603;50.878;8.036;2022-09-09T13:16:26;3.83;;;0.47;;
28353;SDS011;15603;50.878;8.036;2022-09-09T13:18:59;2.83;;;0.38;;
28353;SDS011;15603;50.878;8.036;2022-09-09T13:21:32;3.13;;;1.15;;
28353;SDS011;15603;50.878;8.036;2022-09-09T13:24:01;2.78;;;0.43;;
28353;SDS011;15603;50.878;8.036;2022-09-09T13:26:31;5.65;;;0.73;;
28353;SDS011;15603;50.878;8.036;2022-09-09T13:29:09;4.07;;;0.30;;
28353;SDS011;15603;50.878;8.036;2022-09-09T13:31:44;2.45;;;0.38;;
28353;SDS011;15603;50.878;8.036;2022-09-09T13:34:33;0.80;;;0.28;;
28353;SDS011;15603;50.878;8.036;2022-09-09T13:37:01;2.20;;;0.30;;
28353;SDS011;15603;50.878;8.036;2022-09-09T13:39:33;2.45;;;0.63;;
28353;SDS011;15603;50.878;8.036;2022-09-09T13:42:03;2.40;;;0.60;;
28353;SDS011;15603;50.878;8.036;2022-09-09T13:44:34;4.20;;;0.52;;
28353;SDS011;15603;50.878;8.036;2022-09-09T13:47:06;1.65;;;0.38;;
28353;SDS011;15603;50.878;8.036;2022-09-09T13:49:36;2.03;;;0.40;;
28353;SDS011;15603;50.878;8.036;2022-09-09T13:52:04;2.58;;;0.45;;
28353;SDS011;15603;50.878;8.036;2022-09-09T13:54:35;2.10;;;0.40;;
28353;SDS011;15603;50.878;8.036;2022-09-09T13:57:02;2.00;;;0.25;;
28353;SDS011;15603;50.878;8.036;2022-09-09T13:59:31;11.90;;;0.57;;
28353;SDS011;15603;50.878;8.036;2022-09-09T14:02:18;1.17;;;0.38;;
28353;SDS011;15603;50.878;8.036;2022-09-09T14:04:46;1.75;;;0.22;;
28353;SDS011;15603;50.878;8.036;2022-09-09T14:07:14;2.25;;;0.40;;
28353;SDS011;15603;50.878;8.036;2022-09-09T14:09:43;3.30;;;0.95;;
28353;SDS011;15603;50.878;8.036;2022-09-09T14:12:13;1.70;;;0.60;;
28353;SDS011;15603;50.878;8.036;2022-09-09T14:14:42;3.78;;;0.50;;
28353;SDS011;15603;50.878;8.036;2022-09-09T14:17:09;3.53;;;0.25;;
28353;SDS011;15603;50.878;8.036;2022-09-09T14:19:36;3.58;;;0.40;;
28353;SDS011;15603;50.878;8.036;2022-09-09T14:22:06;2.10;;;0.50;;
28353;SDS011;15603;50.878;8.036;2022-09-09T14:24:33;3.70;;;0.50;;
28353;SDS011;15603;50.878;8.036;2022-09-09T14:27:00;2.10;;;0.20;;
28353;SDS011;15603;50.878;8.036;2022-09-09T14:29:27;3.03;;;0.70;;
28353;SDS011;15603;50.878;8.036;2022-09-09T14:31:54;5.15;;;0.63;;
28353;SDS011;15603;50.878;8.036;2022-09-09T14:34:21;2.45;;;0.50;;
28353;SDS011;15603;50.878;8.036;2022-09-09T14:36:49;4.47;;;0.70;;
28353;SDS011;15603;50.878;8.036;2022-09-09T14:39:16;3.45;;;1.35;;
28353;SDS011;15603;50.878;8.036;2022-09-09T14:41:43;2.22;;;0.32;;
28353;SDS011;15603;50.878;8.036;2022-09-09T14:44:10;4.30;;;0.88;;
28353;SDS011;15603;50.878;8.036;2022-09-09T14:46:37;2.78;;;0.52;;
28353;SDS011;15603;50.878;8.036;2022-09-09T14:49:04;4.82;;;1.02;;
28353;SDS011;15603;50.878;8.036;2022-09-09T14:51:31;7.88;;;1.45;;
28353;SDS011;15603;50.878;8.036;2022-09-09T14:53:59;6.90;;;0.90;;
28353;SDS011;15603;50.878;8.036;2022-09-09T14:56:27;0.50;;;0.20;;
28353;SDS011;15603;50.878;8.036;2022-09-09T14:58:57;5.70;;;0.60;;
28353;SDS011;15603;50.878;8.036;2022-09-09T15:01:25;3.20;;;0.60;;
28353;SDS011;15603;50.878;8.036;2022-09-09T15:04:02;4.50;;;0.43;;
28353;SDS011;15603;50.878;8.036;2022-09-09T15:06:32;4.28;;;0.45;;
28353;SDS011;15603;50.878;8.036;2022-09-09T15:09:01;3.83;;;0.60;;
28353;SDS011;15603;50.878;8.036;2022-09-09T15:11:33;2.42;;;0.47;;
28353;SDS011;15603;50.878;8.036;2022-09-09T15:14:05;1.42;;;0.45;;
28353;SDS011;15603;50.878;8.036;2022-09-09T15:16:33;12.15;;;0.60;;
28353;SDS011;15603;50.878;8.036;2022-09-09T15:19:01;2.30;;;0.75;;
28353;SDS011;15603;50.878;8.036;2022-09-09T15:21:30;1.90;;;0.70;;
28353;SDS011;15603;50.878;8.036;2022-09-09T15:23:59;4.70;;;0.73;;
28353;SDS011;15603;50.878;8.036;2022-09-09T15:26:27;1.88;;;0.88;;
28353;SDS011;15603;50.878;8.036;2022-09-09T15:28:55;4.05;;;0.80;;
28353;SDS011;15603;50.878;8.036;2022-09-09T15:31:22;2.92;;;0.60;;
28353;SDS011;15603;50.878;8.036;2022-09-09T15:33:52;4.82;;;1.20;;
28353;SDS011;15603;50.878;8.036;2022-09-09T15:36:21;2.83;;;0.65;;
28353;SDS011;15603;50.878;8.036;2022-09-09T15:38:50;9.23;;;0.90;;
28353;SDS011;15603;50.878;8.036;2022-09-09T15:41:19;5.63;;;0.30;;
28353;SDS011;15603;50.878;8.036;2022-09-09T15:43:47;1.75;;;0.40;;
28353;SDS011;15603;50.878;8.036;2022-09-09T15:48:44;2.95;;;0.50;;
28353;SDS011;15603;50.878;8.036;2022-09-09T15:51:14;1.35;;;0.30;;
28353;SDS011;15603;50.878;8.036;2022-09-09T15:54:01;7.35;;;0.65;;
28353;SDS011;15603;50.878;8.036;2022-09-09T15:56:29;2.85;;;0.70;;
28353;SDS011;15603;50.878;8.036;2022-09-09T15:58:59;1.60;;;0.30;;
28353;SDS011;15603;50.878;8.036;2022-09-09T16:01:26;1.45;;;0.60;;
28353;SDS011;15603;50.878;8.036;2022-09-09T16:03:54;5.10;;;0.47;;
28353;SDS011;15603;50.878;8.036;2022-09-09T16:06:22;7.55;;;1.77;;
28353;SDS011;15603;50.878;8.036;2022-09-09T16:08:51;3.00;;;0.45;;
28353;SDS011;15603;50.878;8.036;2022-09-09T16:11:24;5.47;;;0.63;;
28353;SDS011;15603;50.878;8.036;2022-09-09T16:13:58;6.53;;;0.40;;
28353;SDS011;15603;50.878;8.036;2022-09-09T16:16:27;2.42;;;0.55;;
28353;SDS011;15603;50.878;8.036;2022-09-09T16:18:57;5.72;;;0.70;;
28353;SDS011;15603;50.878;8.036;2022-09-09T16:21:27;5.93;;;0.63;;
28353;SDS011;15603;50.878;8.036;2022-09-09T16:23:56;7.78;;;0.93;;
28353;SDS011;15603;50.878;8.036;2022-09-09T16:26:26;3.40;;;0.77;;
28353;SDS011;15603;50.878;8.036;2022-09-09T16:28:54;3.72;;;0.73;;
28353;SDS011;15603;50.878;8.036;2022-09-09T16:31:22;1.45;;;0.80;;
28353;SDS011;15603;50.878;8.036;2022-09-09T16:33:51;4.97;;;0.70;;
28353;SDS011;15603;50.878;8.036;2022-09-09T16:36:22;5.15;;;0.77;;
28353;SDS011;15603;50.878;8.036;2022-09-09T16:38:55;2.78;;;1.00;;
28353;SDS011;15603;50.878;8.036;2022-09-09T16:41:24;5.43;;;0.98;;
28353;SDS011;15603;50.878;8.036;2022-09-09T16:43:57;3.78;;;0.70;;
28353;SDS011;15603;50.878;8.036;2022-09-09T16:46:26;3.05;;;0.55;;
28353;SDS011;15603;50.878;8.036;2022-09-09T16:48:58;4.10;;;1.00;;
28353;SDS011;15603;50.878;8.036;2022-09-09T16:51:37;2.35;;;0.98;;
28353;SDS011;15603;50.878;8.036;2022-09-09T16:54:06;3.35;;;0.55;;
28353;SDS011;15603;50.878;8.036;2022-09-09T16:56:35;1.67;;;0.43;;
28353;SDS011;15603;50.878;8.036;2022-09-09T16:59:06;2.63;;;0.93;;